createdAt,value
2019-03-24T00:01:41.376Z,18.02
2019-03-24T00:04:34.612Z,16.97
2019-03-24T00:07:31.179Z,15.95
2019-03-24T00:10:26.931Z,14.58
2019-03-24T00:13:24.939Z,14.00
2019-03-24T00:16:20.989Z,15.58
2019-03-24T00:19:17.491Z,14.98
2019-03-24T00:22:13.647Z,16.57
2019-03-24T00:25:10.997Z,15.15
2019-03-24T00:28:06.938Z,16.10
2019-03-24T00:31:03.701Z,16.70
2019-03-24T00:34:00.199Z,16.12
2019-03-24T00:36:56.362Z,13.98
2019-03-24T00:39:52.366Z,12.90
2019-03-24T00:42:48.560Z,12.60
2019-03-24T00:45:45.721Z,11.83
2019-03-24T00:48:42.235Z,11.85
2019-03-24T00:51:40.272Z,12.25
2019-03-24T00:54:36.975Z,11.90
2019-03-24T00:57:34.012Z,12.13
2019-03-24T01:00:46.547Z,12.18
2019-03-24T01:03:42.849Z,13.45
2019-03-24T01:06:39.335Z,15.70
2019-03-24T01:09:35.744Z,16.12
2019-03-24T01:12:31.807Z,15.13
2019-03-24T01:15:28.637Z,13.83
2019-03-24T01:18:25.272Z,13.25
2019-03-24T01:21:21.260Z,16.20
2019-03-24T01:24:17.758Z,17.55
2019-03-24T01:27:13.735Z,13.28
2019-03-24T01:30:10.316Z,14.13
2019-03-24T01:33:06.736Z,15.93
2019-03-24T01:36:03.442Z,16.15
2019-03-24T01:39:00.598Z,16.60
2019-03-24T01:41:57.799Z,18.00
2019-03-24T01:44:54.463Z,18.02
2019-03-24T01:47:50.920Z,17.60
2019-03-24T01:50:47.727Z,18.23
2019-03-24T01:53:45.968Z,19.20
2019-03-24T01:56:42.322Z,20.75
2019-03-24T01:59:39.590Z,20.77
2019-03-24T02:02:36.457Z,19.90
2019-03-24T02:05:32.955Z,19.75
2019-03-24T02:08:29.970Z,19.37
2019-03-24T02:11:26.109Z,19.10
2019-03-24T02:14:22.353Z,19.98
2019-03-24T02:17:18.416Z,19.87
2019-03-24T02:20:14.861Z,21.85
2019-03-24T02:23:11.434Z,22.25
2019-03-24T02:26:08.357Z,20.55
2019-03-24T02:29:05.082Z,16.73
2019-03-24T02:32:01.481Z,15.63
2019-03-24T02:34:57.953Z,15.05
2019-03-24T02:37:54.164Z,15.05
2019-03-24T02:40:50.437Z,13.93
2019-03-24T02:43:46.932Z,15.10
2019-03-24T02:46:45.039Z,12.85
2019-03-24T02:49:43.892Z,12.28
2019-03-24T02:52:40.449Z,12.63
2019-03-24T02:55:39.441Z,15.28
2019-03-24T02:58:36.243Z,13.45
2019-03-24T03:01:32.714Z,15.25
2019-03-24T03:04:28.874Z,15.70
2019-03-24T03:07:28.242Z,12.15
2019-03-24T03:10:24.938Z,10.75
2019-03-24T03:13:20.863Z,10.68
2019-03-24T03:16:17.255Z,11.50
2019-03-24T03:19:13.320Z,11.57
2019-03-24T03:22:09.722Z,12.30
2019-03-24T03:25:06.123Z,11.90
2019-03-24T03:28:02.557Z,14.60
2019-03-24T03:30:58.782Z,13.83
2019-03-24T03:33:55.049Z,14.03
2019-03-24T03:36:52.106Z,13.35
2019-03-24T03:39:49.384Z,14.70
2019-03-24T03:42:47.339Z,15.38
2019-03-24T03:45:44.816Z,13.58
2019-03-24T03:48:41.411Z,12.00
2019-03-24T03:51:40.677Z,10.23
2019-03-24T03:54:36.993Z,11.20
2019-03-24T03:57:35.292Z,9.65
2019-03-24T04:00:50.230Z,10.82
2019-03-24T04:03:46.162Z,9.80
2019-03-24T04:06:42.759Z,10.40
2019-03-24T04:09:39.209Z,11.30
2019-03-24T04:12:35.551Z,10.32
2019-03-24T04:15:31.396Z,9.50
2019-03-24T04:18:28.022Z,9.65
2019-03-24T04:21:24.411Z,8.45
2019-03-24T04:24:21.244Z,8.05
2019-03-24T04:27:17.795Z,9.08
2019-03-24T04:30:14.309Z,8.23
2019-03-24T04:33:11.452Z,9.53
2019-03-24T04:36:07.767Z,11.33
2019-03-24T04:39:04.278Z,8.00
2019-03-24T04:42:02.634Z,8.13
2019-03-24T04:44:56.710Z,9.75
2019-03-24T04:47:54.202Z,9.58
2019-03-24T04:50:51.043Z,9.58
2019-03-24T04:53:47.758Z,8.35
2019-03-24T04:56:44.142Z,10.58
2019-03-24T04:59:41.041Z,9.95
2019-03-24T05:02:37.939Z,8.90
2019-03-24T05:05:34.505Z,10.15
2019-03-24T05:08:31.860Z,9.35
2019-03-24T05:11:28.269Z,9.58
2019-03-24T05:14:24.503Z,10.40
2019-03-24T05:17:27.050Z,10.55
2019-03-24T05:20:17.750Z,10.05
2019-03-24T05:23:15.305Z,9.80
2019-03-24T05:26:12.361Z,8.75
2019-03-24T05:29:09.123Z,9.45
2019-03-24T05:32:05.930Z,9.75
2019-03-24T05:35:03.196Z,9.95
2019-03-24T05:37:59.911Z,9.73
2019-03-24T05:40:59.691Z,9.03
2019-03-24T05:43:57.757Z,9.63
2019-03-24T05:46:54.551Z,9.38
2019-03-24T05:49:50.557Z,9.05
2019-03-24T05:52:47.455Z,8.08
2019-03-24T05:55:44.625Z,8.30
2019-03-24T05:58:41.556Z,8.60
2019-03-24T06:01:37.697Z,7.75
2019-03-24T06:04:33.850Z,8.58
2019-03-24T06:07:29.957Z,8.15
2019-03-24T06:10:26.090Z,7.58
2019-03-24T06:13:22.041Z,7.85
2019-03-24T06:16:17.984Z,8.20
2019-03-24T06:19:14.406Z,7.92
2019-03-24T06:22:10.720Z,8.13
2019-03-24T06:25:07.280Z,8.70
2019-03-24T06:28:03.451Z,6.87
2019-03-24T06:31:01.732Z,7.00
2019-03-24T06:33:56.562Z,7.00
2019-03-24T06:36:52.745Z,7.62
2019-03-24T06:39:48.918Z,7.55
2019-03-24T06:42:45.713Z,7.47
2019-03-24T06:45:42.686Z,7.28
2019-03-24T06:48:39.343Z,6.95
2019-03-24T06:51:35.795Z,7.62
2019-03-24T06:54:32.416Z,7.33
2019-03-24T06:57:29.388Z,7.37
2019-03-24T07:00:25.395Z,6.62
2019-03-24T07:03:21.446Z,7.15
2019-03-24T07:06:17.703Z,6.75
2019-03-24T07:09:13.770Z,7.30
2019-03-24T07:12:11.712Z,6.85
2019-03-24T07:15:08.803Z,6.47
2019-03-24T07:18:08.666Z,7.35
2019-03-24T07:21:04.161Z,6.80
2019-03-24T07:24:00.620Z,7.08
2019-03-24T07:26:56.599Z,6.65
2019-03-24T07:29:53.252Z,7.35
2019-03-24T07:32:48.996Z,7.33
2019-03-24T07:35:45.394Z,6.90
2019-03-24T07:38:42.618Z,7.22
2019-03-24T07:41:39.272Z,6.75
2019-03-24T07:44:36.056Z,6.90
2019-03-24T07:47:32.079Z,6.85
2019-03-24T07:50:28.421Z,7.97
2019-03-24T07:53:24.471Z,7.90
2019-03-24T07:56:20.791Z,8.23
2019-03-24T07:59:16.658Z,10.10
2019-03-24T08:02:12.712Z,8.93
2019-03-24T08:05:08.810Z,8.93
2019-03-24T08:08:04.654Z,8.00
2019-03-24T08:11:00.494Z,8.83
2019-03-24T08:13:56.631Z,8.95
2019-03-24T08:16:53.064Z,8.95
2019-03-24T08:19:49.192Z,9.00
2019-03-24T08:22:45.530Z,10.10
2019-03-24T08:25:41.402Z,9.70
2019-03-24T08:28:37.913Z,9.23
2019-03-24T08:31:34.330Z,9.63
2019-03-24T08:34:31.005Z,11.22
2019-03-24T08:37:28.437Z,9.93
2019-03-24T08:40:24.413Z,9.15
2019-03-24T08:43:21.956Z,8.45
2019-03-24T08:46:18.328Z,8.73
2019-03-24T08:49:14.919Z,8.20
2019-03-24T08:52:12.791Z,8.35
2019-03-24T08:55:08.324Z,8.90
2019-03-24T08:58:04.423Z,9.08
2019-03-24T09:01:01.247Z,8.93
2019-03-24T09:03:58.042Z,8.78
2019-03-24T09:06:54.177Z,8.85
2019-03-24T09:09:50.605Z,9.20
2019-03-24T09:12:47.197Z,8.80
2019-03-24T09:15:43.284Z,9.00
2019-03-24T09:18:51.686Z,9.80
2019-03-24T09:21:39.774Z,9.50
2019-03-24T09:24:38.514Z,9.33
2019-03-24T09:27:34.395Z,9.25
2019-03-24T09:30:41.832Z,9.20
2019-03-24T09:33:38.836Z,9.20
2019-03-24T09:36:35.252Z,9.23
2019-03-24T09:39:31.489Z,8.55
2019-03-24T09:42:28.380Z,8.95
2019-03-24T09:45:25.709Z,8.95
2019-03-24T09:48:21.832Z,8.85
2019-03-24T09:51:18.152Z,9.43
2019-03-24T09:54:14.738Z,9.95
2019-03-24T09:57:11.851Z,9.30
2019-03-24T10:00:08.815Z,9.70
2019-03-24T10:03:05.813Z,9.03
2019-03-24T10:06:02.658Z,8.40
2019-03-24T10:08:58.951Z,9.70
2019-03-24T10:11:55.455Z,9.58
2019-03-24T10:14:53.562Z,9.30
2019-03-24T10:17:49.595Z,8.43
2019-03-24T10:20:47.426Z,8.35
2019-03-24T10:23:43.827Z,8.73
2019-03-24T10:26:39.660Z,7.80
2019-03-24T10:29:36.346Z,8.23
2019-03-24T10:32:32.426Z,8.18
2019-03-24T10:35:29.229Z,7.78
2019-03-24T10:38:26.261Z,7.58
2019-03-24T10:41:22.792Z,8.48
2019-03-24T10:44:19.804Z,7.65
2019-03-24T10:47:17.198Z,8.93
2019-03-24T10:50:14.515Z,8.40
2019-03-24T10:53:11.624Z,8.20
2019-03-24T10:56:07.675Z,7.78
2019-03-24T10:59:04.059Z,8.08
2019-03-24T11:02:01.359Z,9.00
2019-03-24T11:04:58.948Z,7.83
2019-03-24T11:07:55.220Z,8.58
2019-03-24T11:10:51.678Z,7.85
2019-03-24T11:13:48.494Z,7.97
2019-03-24T11:16:45.375Z,7.90
2019-03-24T11:19:42.220Z,8.60
2019-03-24T11:22:38.862Z,8.05
2019-03-24T11:25:36.184Z,8.30
2019-03-24T11:28:32.447Z,8.33
2019-03-24T11:31:29.387Z,7.95
2019-03-24T11:34:26.312Z,8.50
2019-03-24T11:37:23.950Z,8.80
2019-03-24T11:40:21.200Z,7.80
2019-03-24T11:43:17.582Z,7.90
2019-03-24T11:46:13.875Z,8.33
2019-03-24T11:49:19.668Z,9.28
2019-03-24T11:52:15.979Z,8.30
2019-03-24T11:55:13.018Z,8.50
2019-03-24T11:58:09.836Z,8.38
2019-03-24T12:01:06.505Z,8.30
2019-03-24T12:04:03.295Z,8.53
2019-03-24T12:07:00.034Z,8.95
2019-03-24T12:09:56.816Z,9.53
2019-03-24T12:12:53.463Z,9.30
2019-03-24T12:15:50.681Z,8.83
2019-03-24T12:18:46.883Z,10.20
2019-03-24T12:21:42.741Z,9.95
2019-03-24T12:24:39.895Z,9.65
2019-03-24T12:27:37.867Z,12.82
2019-03-24T12:30:34.087Z,11.60
2019-03-24T12:33:30.908Z,12.37
2019-03-24T12:36:27.830Z,12.47
2019-03-24T12:39:24.198Z,14.70
2019-03-24T12:42:20.989Z,14.90
2019-03-24T12:45:18.558Z,13.55
2019-03-24T12:48:14.716Z,13.25
2019-03-24T12:51:10.996Z,12.80
2019-03-24T12:54:07.859Z,11.93
2019-03-24T12:57:04.661Z,13.00
2019-03-24T13:00:01.632Z,12.10
2019-03-24T13:02:59.639Z,12.40
2019-03-24T13:05:56.048Z,13.05
2019-03-24T13:08:52.905Z,12.45
2019-03-24T13:11:50.533Z,12.70
2019-03-24T13:14:49.455Z,12.53
2019-03-24T13:17:45.427Z,13.70
2019-03-24T13:20:42.250Z,13.53
2019-03-24T13:23:39.678Z,14.38
2019-03-24T13:26:36.521Z,26.12
2019-03-24T13:29:33.466Z,27.05
2019-03-24T13:32:30.442Z,32.67
2019-03-24T13:35:27.318Z,30.97
2019-03-24T13:38:27.610Z,38.05
2019-03-24T13:41:24.115Z,29.30
2019-03-24T13:44:20.592Z,30.43
2019-03-24T13:47:17.260Z,25.00
2019-03-24T13:50:14.165Z,31.90
2019-03-24T13:53:11.290Z,33.13
2019-03-24T13:56:07.526Z,28.12
2019-03-24T13:59:04.102Z,30.57
2019-03-24T14:02:00.339Z,33.98
2019-03-24T14:04:58.075Z,32.93
2019-03-24T14:07:56.108Z,27.20
2019-03-24T14:10:53.853Z,30.20
2019-03-24T14:13:52.113Z,34.23
2019-03-24T14:16:50.730Z,33.30
2019-03-24T14:19:47.862Z,32.03
2019-03-24T14:22:45.975Z,32.20
2019-03-24T14:25:42.477Z,32.78
2019-03-24T14:28:39.454Z,27.50
2019-03-24T14:31:36.115Z,30.02
2019-03-24T14:34:33.835Z,29.15
2019-03-24T14:37:30.530Z,33.78
2019-03-24T14:40:29.090Z,34.40
2019-03-24T14:43:27.576Z,35.25
2019-03-24T14:46:23.838Z,34.03
2019-03-24T14:49:22.126Z,34.83
2019-03-24T14:52:19.409Z,35.92
2019-03-24T14:55:15.897Z,39.03
2019-03-24T14:58:14.129Z,37.05
2019-03-24T15:01:10.886Z,31.93
2019-03-24T15:04:06.811Z,28.23
2019-03-24T15:07:05.368Z,26.52
2019-03-24T15:10:01.564Z,22.55
2019-03-24T15:13:00.101Z,20.80
2019-03-24T15:15:56.538Z,20.95
2019-03-24T15:18:52.644Z,21.02
2019-03-24T15:21:50.090Z,20.43
2019-03-24T15:24:46.214Z,20.20
2019-03-24T15:27:43.609Z,20.43
2019-03-24T15:30:39.988Z,18.50
2019-03-24T15:33:36.971Z,18.62
2019-03-24T15:36:33.507Z,18.37
2019-03-24T15:39:29.718Z,16.87
2019-03-24T15:42:26.051Z,16.93
2019-03-24T15:45:22.795Z,17.25
2019-03-24T15:48:20.481Z,17.25
2019-03-24T15:51:17.318Z,17.80
2019-03-24T15:54:13.495Z,18.45
2019-03-24T15:57:10.460Z,18.12
2019-03-24T16:00:07.939Z,23.67
2019-03-24T16:03:04.899Z,20.25
2019-03-24T16:06:00.979Z,18.05
2019-03-24T16:08:57.574Z,17.90
2019-03-24T16:11:53.861Z,17.87
2019-03-24T16:14:50.177Z,18.57
2019-03-24T16:17:46.343Z,17.52
2019-03-24T16:20:43.244Z,17.90
2019-03-24T16:23:40.662Z,17.77
2019-03-24T16:26:37.700Z,16.87
2019-03-24T16:29:33.907Z,20.45
2019-03-24T16:32:30.853Z,17.52
2019-03-24T16:35:28.409Z,21.35
2019-03-24T16:38:25.478Z,21.27
2019-03-24T16:41:22.918Z,22.25
2019-03-24T16:44:20.488Z,22.58
2019-03-24T16:47:18.561Z,22.55
2019-03-24T16:50:16.391Z,21.95
2019-03-24T16:53:12.290Z,23.55
2019-03-24T16:56:08.854Z,21.77
2019-03-24T16:59:05.515Z,21.73
2019-03-24T17:02:02.597Z,21.97
2019-03-24T17:04:58.939Z,20.48
2019-03-24T17:07:55.687Z,18.52
2019-03-24T17:10:52.272Z,18.48
2019-03-24T17:13:48.892Z,18.40
2019-03-24T17:16:45.203Z,17.82
2019-03-24T17:19:41.616Z,17.40
2019-03-24T17:22:38.257Z,16.95
2019-03-24T17:25:35.195Z,16.00
2019-03-24T17:28:32.119Z,16.97
2019-03-24T17:31:29.154Z,17.15
2019-03-24T17:34:25.257Z,16.52
2019-03-24T17:37:22.081Z,16.20
2019-03-24T17:40:18.937Z,17.37
2019-03-24T17:43:15.766Z,16.15
2019-03-24T17:46:13.808Z,16.00
2019-03-24T17:49:10.806Z,16.10
2019-03-24T17:52:07.430Z,16.80
2019-03-24T17:55:04.317Z,16.35
2019-03-24T17:58:01.024Z,16.02
2019-03-24T18:00:58.951Z,15.43
2019-03-24T18:03:54.920Z,15.72
2019-03-24T18:06:51.436Z,15.45
2019-03-24T18:09:48.001Z,15.60
2019-03-24T18:12:44.304Z,14.33
2019-03-24T18:15:40.465Z,15.35
2019-03-24T18:18:36.971Z,14.40
2019-03-24T18:21:33.239Z,13.70
2019-03-24T18:24:29.728Z,13.83
2019-03-24T18:27:26.074Z,15.40
2019-03-24T18:30:22.919Z,16.27
2019-03-24T18:33:19.296Z,17.15
2019-03-24T18:36:15.875Z,17.10
2019-03-24T18:39:13.952Z,17.07
2019-03-24T18:42:13.008Z,17.17
2019-03-24T18:45:10.717Z,18.05
2019-03-24T18:48:07.470Z,18.73
2019-03-24T18:51:04.353Z,18.23
2019-03-24T18:54:00.591Z,18.05
2019-03-24T18:56:57.620Z,17.27
2019-03-24T18:59:53.933Z,18.05
2019-03-24T19:02:50.539Z,19.07
2019-03-24T19:05:47.330Z,17.80
2019-03-24T19:08:43.855Z,17.92
2019-03-24T19:11:40.642Z,17.70
2019-03-24T19:14:37.205Z,15.98
2019-03-24T19:17:33.792Z,15.68
2019-03-24T19:20:30.432Z,13.98
2019-03-24T19:23:26.976Z,12.70
2019-03-24T19:26:23.578Z,12.65
2019-03-24T19:29:20.190Z,12.70
2019-03-24T19:32:16.909Z,12.20
2019-03-24T19:35:13.853Z,13.05
2019-03-24T19:38:10.203Z,13.32
2019-03-24T19:41:06.979Z,12.60
2019-03-24T19:44:03.425Z,12.10
2019-03-24T19:46:59.987Z,12.20
2019-03-24T19:49:57.507Z,11.97
2019-03-24T19:52:54.195Z,11.97
2019-03-24T19:55:50.792Z,12.43
2019-03-24T19:58:47.381Z,13.13
2019-03-24T20:01:44.435Z,12.47
2019-03-24T20:04:41.318Z,12.88
2019-03-24T20:07:47.526Z,12.68
2019-03-24T20:10:34.597Z,12.68
2019-03-24T20:13:30.795Z,13.08
2019-03-24T20:16:27.127Z,12.43
2019-03-24T20:19:24.797Z,14.38
2019-03-24T20:22:20.627Z,14.40
2019-03-24T20:25:17.290Z,14.40
2019-03-24T20:28:14.081Z,14.10
2019-03-24T20:31:10.328Z,13.78
2019-03-24T20:34:06.657Z,14.03
2019-03-24T20:37:03.212Z,15.15
2019-03-24T20:39:59.782Z,14.95
2019-03-24T20:42:56.240Z,16.32
2019-03-24T20:45:52.786Z,17.57
2019-03-24T20:48:49.334Z,16.27
2019-03-24T20:51:45.742Z,17.23
2019-03-24T20:54:42.456Z,18.10
2019-03-24T20:57:38.970Z,19.73
2019-03-24T21:00:40.675Z,19.23
2019-03-24T21:03:37.453Z,21.37
2019-03-24T21:06:34.322Z,22.17
2019-03-24T21:09:30.947Z,23.57
2019-03-24T21:12:26.866Z,24.60
2019-03-24T21:15:23.500Z,26.25
2019-03-24T21:18:20.177Z,27.45
2019-03-24T21:21:16.925Z,29.25
2019-03-24T21:24:13.474Z,30.72
2019-03-24T21:27:09.881Z,32.48
2019-03-24T21:30:06.607Z,35.17
2019-03-24T21:33:03.330Z,36.45
2019-03-24T21:35:59.911Z,38.90
2019-03-24T21:38:57.443Z,41.95
2019-03-24T21:41:53.923Z,43.35
2019-03-24T21:44:50.615Z,42.67
2019-03-24T21:47:47.001Z,42.73
2019-03-24T21:50:44.162Z,42.73
2019-03-24T21:53:41.139Z,44.77
2019-03-24T21:56:38.441Z,44.05
2019-03-24T21:59:34.969Z,45.43
2019-03-24T22:02:31.651Z,43.75
2019-03-24T22:05:27.833Z,44.85
2019-03-24T22:08:24.407Z,43.90
2019-03-24T22:11:21.424Z,41.58
2019-03-24T22:14:18.136Z,39.30
2019-03-24T22:17:15.062Z,40.12
2019-03-24T22:20:12.351Z,35.68
2019-03-24T22:23:08.685Z,35.15
2019-03-24T22:26:04.780Z,33.35
2019-03-24T22:29:01.276Z,31.85
2019-03-24T22:31:58.667Z,31.10
2019-03-24T22:34:55.099Z,31.05
2019-03-24T22:37:51.741Z,30.23
2019-03-24T22:40:48.270Z,31.77
2019-03-24T22:43:45.036Z,31.25
2019-03-24T22:46:41.805Z,31.05
2019-03-24T22:49:38.059Z,33.25
2019-03-24T22:52:34.647Z,35.30
2019-03-24T22:55:30.752Z,34.25
2019-03-24T22:58:26.669Z,37.42
2019-03-24T23:01:23.243Z,40.88
2019-03-24T23:04:21.504Z,40.50
2019-03-24T23:07:17.537Z,43.65
2019-03-24T23:10:15.025Z,44.20
2019-03-24T23:13:11.520Z,46.05
2019-03-24T23:16:08.084Z,46.00
2019-03-24T23:19:04.459Z,47.27
2019-03-24T23:22:00.793Z,47.10
2019-03-24T23:24:57.011Z,45.17
2019-03-24T23:27:53.629Z,45.10
2019-03-24T23:30:50.415Z,45.25
2019-03-24T23:33:47.199Z,45.85
2019-03-24T23:36:43.967Z,46.88
2019-03-24T23:39:40.361Z,46.20
2019-03-24T23:42:38.161Z,47.60
2019-03-24T23:45:34.892Z,46.70
2019-03-24T23:48:32.004Z,48.80
2019-03-24T23:51:28.388Z,47.50
2019-03-24T23:54:27.328Z,46.90
2019-03-24T23:57:21.571Z,48.92
